Time;durP1;ratioP1;P1;durP2;ratioP2;P2;SDS_P1;SDS_P2;PMS_P1;PMS_P2;Temp;Humidity;BMP_temperature;BMP_pressure;BME280_temperature;BME280_humidity;BME280_pressure;Samples;Min_cycle;Max_cycle;Signal;HPM_P1;HPM_P2
2023/11/30 00:00:21;;;;;;;;;;;;;;;-144.99;100.00;52672.31;5028293;28;19933;-68
2023/11/30 00:02:48;;;;;;;;;;;;;;;-144.99;100.00;52680.47;5028627;28;20310;-68
2023/11/30 00:05:14;;;;;;;;;;;;;;;-144.99;100.00;52680.47;5024214;28;19925;-64
2023/11/30 00:07:41;;;;;;;;;;;;;;;-144.99;100.00;52656.00;5026012;28;19925;-63
2023/11/30 00:10:08;;;;;;;;;;;;;;;-144.99;100.00;52658.03;5031670;28;19944;-63
2023/11/30 00:12:36;;;;;;;;;;;;;;;-144.99;100.00;52651.94;5031626;28;19983;-69
2023/11/30 00:15:02;;;;;;;;;;;;;;;-144.99;100.00;52709.00;5029715;28;19999;-73
2023/11/30 00:17:29;;;;;;;;;;;;;;;-144.99;100.00;52692.69;5013962;28;20016;-72
2023/11/30 00:19:56;;;;;;;;;;;;;;;-144.99;100.00;52662.13;4681488;28;10000100;-73
2023/11/30 00:22:22;;;;;;;;;;;;;;;-144.99;100.00;52680.47;5028033;28;19982;-71
2023/11/30 00:24:49;;;;;;;;;;;;;;;-144.99;100.00;52688.63;5023094;28;20378;-70
2023/11/30 00:27:15;;;;;;;;;;;;;;;-144.99;100.00;52658.03;5027923;28;20543;-70
2023/11/30 00:29:43;;;;;;;;;;;;;;;-144.99;100.00;52696.78;5023662;28;19956;-72
2023/11/30 00:34:43;;;;;;;;;;;;;;;-144.99;100.00;52676.38;5035371;28;19937;-67
2023/11/30 00:37:09;;;;;;;;;;;;;;;-144.99;100.00;52664.16;5006557;28;20038;-67
2023/11/30 00:39:36;;;;;;;;;;;;;;;-144.99;100.00;52656.00;5009454;28;19972;-66
2023/11/30 00:42:02;;;;;;;;;;;;;;;-144.99;100.00;52637.66;5009207;28;19949;-65
2023/11/30 00:44:28;;;;;;;;;;;;;;;-144.99;100.00;52702.88;5004291;28;20386;-67
2023/11/30 00:46:56;;;;;;;;;;;;;;;-144.99;100.00;52668.22;5009745;28;19941;-66
2023/11/30 00:49:23;;;;;;;;;;;;;;;-144.99;100.00;52670.28;5012893;28;20003;-66
2023/11/30 00:51:49;;;;;;;;;;;;;;;-144.99;100.00;52668.22;5005328;28;19956;-66
2023/11/30 00:54:16;;;;;;;;;;;;;;;-144.99;100.00;52631.53;5005796;28;19925;-65
2023/11/30 00:56:42;;;;;;;;;;;;;;;-144.99;100.00;52680.47;5007637;28;19926;-65
2023/11/30 00:59:09;;;;;;;;;;;;;;;-144.99;100.00;52692.69;5009011;28;19948;-65
2023/11/30 01:01:35;;;;;;;;;;;;;;;-144.99;100.00;52635.63;5005891;28;19930;-66
2023/11/30 01:04:03;;;;;;;;;;;;;;;-144.99;100.00;52700.84;5004732;28;20046;-66
2023/11/30 01:06:30;;;;;;;;;;;;;;;-144.99;100.00;52664.16;5016045;28;19991;-66
2023/11/30 01:08:56;;;;;;;;;;;;;;;-144.99;100.00;52639.69;5017285;28;19976;-66
2023/11/30 01:11:23;;;;;;;;;;;;;;;-144.99;100.00;52676.38;5013486;28;20440;-66
2023/11/30 01:13:49;;;;;;;;;;;;;;;-144.99;100.00;52651.94;4999048;28;20019;-66
2023/11/30 01:16:16;;;;;;;;;;;;;;;-144.99;100.00;52658.03;5006159;28;19929;-66
2023/11/30 01:18:42;;;;;;;;;;;;;;;-144.99;100.00;52649.88;5017979;28;19926;-66
2023/11/30 01:21:10;;;;;;;;;;;;;;;-144.99;100.00;52651.94;5009265;28;19978;-68
2023/11/30 01:23:37;;;;;;;;;;;;;;;-144.99;100.00;52680.47;5004598;28;19929;-66
2023/11/30 01:26:03;;;;;;;;;;;;;;;-144.99;100.00;52698.81;5017961;28;19929;-66
2023/11/30 01:28:30;;;;;;;;;;;;;;;-144.99;100.00;52666.19;5013696;28;19965;-66
2023/11/30 01:30:57;;;;;;;;;;;;;;;-144.99;100.00;52656.00;5015966;28;20334;-67
2023/11/30 01:33:23;;;;;;;;;;;;;;;-144.99;100.00;52639.69;5014939;28;19996;-66
2023/11/30 01:35:50;;;;;;;;;;;;;;;-144.99;100.00;52672.31;5006216;28;19980;-66
2023/11/30 01:38:18;;;;;;;;;;;;;;;-144.99;100.00;52660.09;5015895;28;20410;-67
2023/11/30 01:40:44;;;;;;;;;;;;;;;-144.99;100.00;52645.81;5008140;28;20461;-67
2023/11/30 01:43:11;;;;;;;;;;;;;;;-144.99;100.00;52647.84;5003089;28;20015;-61
2023/11/30 01:45:37;;;;;;;;;;;;;;;-144.99;100.00;52656.00;4999271;28;19968;-59
2023/11/30 01:48:04;;;;;;;;;;;;;;;-144.99;100.00;52656.00;5005129;28;20392;-59
2023/11/30 01:50:31;;;;;;;;;;;;;;;-144.99;100.00;52672.31;5007952;28;20366;-59
2023/11/30 01:52:58;;;;;;;;;;;;;;;-144.99;100.00;52692.69;5013727;28;19969;-59
2023/11/30 01:55:25;;;;;;;;;;;;;;;-144.99;100.00;52664.16;5016649;28;19929;-61
2023/11/30 01:57:52;;;;;;;;;;;;;;;-144.99;100.00;52674.34;4998800;28;20374;-60
2023/11/30 02:00:19;;;;;;;;;;;;;;;-144.99;100.00;52662.13;5011723;28;20008;-60
2023/11/30 02:02:46;;;;;;;;;;;;;;;-144.99;100.00;52684.53;5009085;28;19988;-59
2023/11/30 02:05:13;;;;;;;;;;;;;;;-144.99;100.00;52709.00;5019010;28;19929;-67
2023/11/30 02:07:39;;;;;;;;;;;;;;;-144.99;100.00;52670.28;5005800;28;19987;-67
2023/11/30 02:10:06;;;;;;;;;;;;;;;-144.99;100.00;52696.78;5000162;28;19977;-66
2023/11/30 02:12:34;;;;;;;;;;;;;;;-144.99;100.00;52704.94;5002280;28;20005;-66
2023/11/30 02:15:00;;;;;;;;;;;;;;;-144.99;100.00;52684.53;5008765;28;19926;-66
2023/11/30 02:17:27;;;;;;;;;;;;;;;-144.99;100.00;52694.72;5013287;28;19925;-66
2023/11/30 02:19:53;;;;;;;;;;;;;;;-144.99;100.00;52651.94;5008955;28;19926;-66
2023/11/30 02:22:21;;;;;;;;;;;;;;;-144.99;100.00;52698.81;5008149;28;19926;-66
2023/11/30 02:24:48;;;;;;;;;;;;;;;-144.99;100.00;52639.69;4999689;28;19926;-66
2023/11/30 02:27:14;;;;;;;;;;;;;;;-144.99;100.00;52660.09;5004210;28;19973;-66
2023/11/30 02:29:41;;;;;;;;;;;;;;;-144.99;100.00;52656.00;5002123;28;19925;-67
2023/11/30 02:32:07;;;;;;;;;;;;;;;-144.99;100.00;52674.34;4996131;28;19934;-66
2023/11/30 02:34:34;;;;;;;;;;;;;;;-144.99;100.00;52676.38;5003865;28;19930;-67
2023/11/30 02:37:00;;;;;;;;;;;;;;;-144.99;100.00;52656.00;4998912;28;20064;-66
2023/11/30 02:39:28;;;;;;;;;;;;;;;-144.99;100.00;52680.47;5015623;28;20031;-66
2023/11/30 02:41:55;;;;;;;;;;;;;;;-144.99;100.00;52668.22;5001055;28;20460;-67
2023/11/30 02:44:21;;;;;;;;;;;;;;;-144.99;100.00;52713.09;5000909;28;19926;-67
2023/11/30 02:46:48;;;;;;;;;;;;;;;-144.99;100.00;52686.59;5009830;28;19926;-66
2023/11/30 02:49:16;;;;;;;;;;;;;;;-144.99;100.00;52645.81;5010087;28;19979;-63
2023/11/30 02:51:43;;;;;;;;;;;;;;;-144.99;100.00;52684.53;5003434;28;19984;-62
2023/11/30 02:54:09;;;;;;;;;;;;;;;-144.99;100.00;52664.16;5003622;28;19991;-63
2023/11/30 02:56:40;;;;;;;;;;;;;;;-144.99;100.00;52631.53;5017184;28;19929;-63
2023/11/30 02:59:06;;;;;;;;;;;;;;;-144.99;100.00;52666.19;4999184;28;19938;-63
2023/11/30 03:01:33;;;;;;;;;;;;;;;-144.99;100.00;52651.94;5004199;28;20011;-62
2023/11/30 03:03:59;;;;;;;;;;;;;;;-144.99;100.00;52647.84;5007193;28;19978;-62
2023/11/30 03:06:26;;;;;;;;;;;;;;;-144.99;100.00;52639.69;5000958;28;20035;-62
2023/11/30 03:08:52;;;;;;;;;;;;;;;-144.99;100.00;52696.78;5000981;28;19925;-62
2023/11/30 03:11:19;;;;;;;;;;;;;;;-144.99;100.00;52672.31;5012884;28;20030;-63
2023/11/30 03:13:47;;;;;;;;;;;;;;;-144.99;100.00;52668.22;5011501;28;19944;-63
2023/11/30 03:16:13;;;;;;;;;;;;;;;-144.99;100.00;52692.69;5009767;28;19925;-64
2023/11/30 03:18:40;;;;;;;;;;;;;;;-144.99;100.00;52680.47;5013348;28;19976;-64
2023/11/30 03:21:15;;;;;;;;;;;;;;;-144.99;100.00;52660.09;5013375;28;20056;-64
2023/11/30 03:23:41;;;;;;;;;;;;;;;-144.99;100.00;52676.38;5003156;28;19937;-64
2023/11/30 03:26:08;;;;;;;;;;;;;;;-144.99;100.00;52670.28;5015205;28;19925;-64
2023/11/30 03:28:34;;;;;;;;;;;;;;;-144.99;100.00;52674.34;5020185;28;19930;-64
2023/11/30 03:31:02;;;;;;;;;;;;;;;-144.99;100.00;52674.34;5010355;28;20459;-64
2023/11/30 03:33:29;;;;;;;;;;;;;;;-144.99;100.00;52692.69;5013115;28;20395;-66
2023/11/30 03:35:55;;;;;;;;;;;;;;;-144.99;100.00;52656.00;5008881;28;20164;-67
2023/11/30 03:38:22;;;;;;;;;;;;;;;-144.99;100.00;52635.63;5005239;28;19956;-67
2023/11/30 03:40:48;;;;;;;;;;;;;;;-144.99;100.00;52651.94;5019652;28;19929;-66
2023/11/30 03:43:15;;;;;;;;;;;;;;;-144.99;100.00;52676.38;5003300;28;20399;-61
2023/11/30 03:45:41;;;;;;;;;;;;;;;-144.99;100.00;52700.84;5004944;28;19976;-62
2023/11/30 03:48:09;;;;;;;;;;;;;;;-144.99;100.00;52664.16;5010340;28;19991;-60
2023/11/30 03:50:36;;;;;;;;;;;;;;;-144.99;100.00;52684.53;5001424;28;19926;-61
2023/11/30 03:53:02;;;;;;;;;;;;;;;-144.99;100.00;52672.31;5018420;28;19925;-61
2023/11/30 03:55:29;;;;;;;;;;;;;;;-144.99;100.00;52639.69;5004906;28;20469;-61
2023/11/30 03:57:55;;;;;;;;;;;;;;;-144.99;100.00;52670.28;4994992;28;19933;-62
2023/11/30 04:00:22;;;;;;;;;;;;;;;-144.99;100.00;52676.38;5003186;28;19979;-65
2023/11/30 04:02:48;;;;;;;;;;;;;;;-144.99;100.00;52680.47;5001505;28;20354;-65
2023/11/30 04:05:16;;;;;;;;;;;;;;;-144.99;100.00;52676.38;5012025;28;20017;-68
2023/11/30 04:07:43;;;;;;;;;;;;;;;-144.99;100.00;52664.16;4994525;28;19933;-67
2023/11/30 04:10:11;;;;;;;;;;;;;;;-144.99;100.00;52672.31;5020099;28;19929;-67
2023/11/30 04:12:37;;;;;;;;;;;;;;;-144.99;100.00;52660.09;5012956;28;20083;-64
2023/11/30 04:15:05;;;;;;;;;;;;;;;-144.99;100.00;52651.94;5014146;28;19938;-63
2023/11/30 04:17:31;;;;;;;;;;;;;;;-144.99;100.00;52674.34;5006253;28;20314;-65
2023/11/30 04:19:58;;;;;;;;;;;;;;;-144.99;100.00;52670.28;5008379;28;20406;-64
2023/11/30 04:22:26;;;;;;;;;;;;;;;-144.99;100.00;52696.78;5003576;28;19934;-64
2023/11/30 04:24:52;;;;;;;;;;;;;;;-144.99;100.00;52639.69;5001979;28;19964;-64
2023/11/30 04:27:19;;;;;;;;;;;;;;;-144.99;100.00;52704.94;5011491;28;20449;-70
2023/11/30 04:29:46;;;;;;;;;;;;;;;-144.99;100.00;52664.16;4995250;28;19980;-69
2023/11/30 04:32:12;;;;;;;;;;;;;;;-144.99;100.00;52643.78;5008652;28;19937;-69
2023/11/30 04:34:39;;;;;;;;;;;;;;;-144.99;100.00;52688.63;5012912;28;19937;-70
2023/11/30 04:37:05;;;;;;;;;;;;;;;-144.99;100.00;52682.50;5000717;28;19995;-69
2023/11/30 04:39:33;;;;;;;;;;;;;;;-144.99;100.00;52684.53;5008595;28;19964;-71
2023/11/30 04:41:59;;;;;;;;;;;;;;;-144.99;100.00;52688.63;5016921;28;19979;-71
2023/11/30 04:44:28;;;;;;;;;;;;;;;-144.99;100.00;52651.94;5010458;28;19925;-69
2023/11/30 04:46:54;;;;;;;;;;;;;;;-144.99;100.00;52688.63;4998004;28;20012;-69
2023/11/30 04:49:21;;;;;;;;;;;;;;;-144.99;100.00;52643.78;5008587;28;19953;-70
2023/11/30 04:51:47;;;;;;;;;;;;;;;-144.99;100.00;52666.19;5014851;28;20078;-71
2023/11/30 04:54:14;;;;;;;;;;;;;;;-144.99;100.00;52692.69;5031640;28;20610;-71
2023/11/30 04:56:42;;;;;;;;;;;;;;;-144.99;100.00;52680.47;5010228;28;19934;-70
2023/11/30 04:59:08;;;;;;;;;;;;;;;-144.99;100.00;52721.22;5003622;28;19991;-69
2023/11/30 05:01:35;;;;;;;;;;;;;;;-144.99;100.00;52674.34;5000046;28;19934;-69
2023/11/30 05:04:02;;;;;;;;;;;;;;;-144.99;100.00;52700.84;5000782;28;19929;-68
2023/11/30 05:06:28;;;;;;;;;;;;;;;-144.99;100.00;52653.97;5006730;28;19963;-70
2023/11/30 05:08:55;;;;;;;;;;;;;;;-144.99;100.00;52641.72;5007177;28;19988;-66
2023/11/30 05:11:21;;;;;;;;;;;;;;;-144.99;100.00;52676.38;5009629;28;19992;-63
2023/11/30 05:13:49;;;;;;;;;;;;;;;-144.99;100.00;52656.00;5009059;28;20287;-68
2023/11/30 05:16:16;;;;;;;;;;;;;;;-144.99;100.00;52676.38;5008547;28;20387;-68
2023/11/30 05:18:42;;;;;;;;;;;;;;;-144.99;100.00;52688.63;5011945;28;19980;-68
2023/11/30 05:21:09;;;;;;;;;;;;;;;-144.99;100.00;52660.09;5005832;28;19987;-68
2023/11/30 05:23:35;;;;;;;;;;;;;;;-144.99;100.00;52696.78;5002501;28;19929;-68
2023/11/30 05:26:02;;;;;;;;;;;;;;;-144.99;100.00;52664.16;5009240;28;19988;-67
2023/11/30 05:28:28;;;;;;;;;;;;;;;-144.99;100.00;52709.00;5008209;28;19937;-69
2023/11/30 05:30:56;;;;;;;;;;;;;;;-144.99;100.00;52694.72;5001549;28;19953;-67
2023/11/30 05:33:25;;;;;;;;;;;;;;;-144.99;100.00;52692.69;5010591;28;19933;-68
2023/11/30 05:35:52;;;;;;;;;;;;;;;-144.99;100.00;52684.53;5007527;28;19972;-68
2023/11/30 05:38:19;;;;;;;;;;;;;;;-144.99;100.00;52635.63;5012090;28;19930;-70
2023/11/30 05:40:46;;;;;;;;;;;;;;;-144.99;100.00;52688.63;5005859;28;19932;-68
2023/11/30 05:43:12;;;;;;;;;;;;;;;-144.99;100.00;52639.69;5006635;28;19992;-67
2023/11/30 05:45:39;;;;;;;;;;;;;;;-144.99;100.00;52643.78;5007383;28;19925;-68
2023/11/30 05:48:07;;;;;;;;;;;;;;;-144.99;100.00;52672.31;5003649;28;19933;-68
2023/11/30 05:50:34;;;;;;;;;;;;;;;-144.99;100.00;52645.81;5017688;28;19973;-68
2023/11/30 05:53:01;;;;;;;;;;;;;;;-144.99;100.00;52684.53;5014906;28;20362;-68
2023/11/30 05:55:28;;;;;;;;;;;;;;;-144.99;100.00;52668.22;5019408;28;20451;-68
2023/11/30 05:57:54;;;;;;;;;;;;;;;-144.99;100.00;52662.13;5010840;28;19938;-67
2023/11/30 06:00:21;;;;;;;;;;;;;;;-144.99;100.00;52647.84;5001223;28;19937;-67
2023/11/30 06:02:48;;;;;;;;;;;;;;;-144.99;100.00;52672.31;5019613;28;19925;-67
2023/11/30 06:05:17;;;;;;;;;;;;;;;-144.99;100.00;52664.16;4996485;28;19929;-68
2023/11/30 06:07:45;;;;;;;;;;;;;;;-144.99;100.00;52676.38;5011094;28;20317;-69
2023/11/30 06:10:11;;;;;;;;;;;;;;;-144.99;100.00;52715.13;5006368;28;19982;-69
2023/11/30 06:12:39;;;;;;;;;;;;;;;-144.99;100.00;52696.78;5007928;28;19926;-69
2023/11/30 06:15:06;;;;;;;;;;;;;;;-144.99;100.00;52680.47;5011337;28;19979;-69
2023/11/30 06:17:32;;;;;;;;;;;;;;;-144.99;100.00;52684.53;5037156;28;19917;-72
2023/11/30 06:19:59;;;;;;;;;;;;;;;-144.99;100.00;52649.88;5029150;28;19929;-69
2023/11/30 06:22:27;;;;;;;;;;;;;;;-144.99;100.00;52625.44;5012534;28;20031;-70
2023/11/30 06:24:53;;;;;;;;;;;;;;;-144.99;100.00;52700.84;5011041;28;20433;-70
2023/11/30 06:27:20;;;;;;;;;;;;;;;-144.99;100.00;52656.00;5007044;28;19984;-69
2023/11/30 06:29:46;;;;;;;;;;;;;;;-144.99;100.00;52668.22;5009724;28;19944;-68
2023/11/30 06:32:13;;;;;;;;;;;;;;;-144.99;100.00;52664.16;5019007;28;19926;-70
2023/11/30 06:34:39;;;;;;;;;;;;;;;-144.99;100.00;52680.47;5010111;28;19933;-69
2023/11/30 06:37:06;;;;;;;;;;;;;;;-144.99;100.00;52725.31;5005089;28;19929;-69
2023/11/30 06:39:34;;;;;;;;;;;;;;;-144.99;100.00;52704.94;4997350;28;19996;-70
2023/11/30 06:42:00;;;;;;;;;;;;;;;-144.99;100.00;52633.59;4998654;28;19930;-69
2023/11/30 06:44:27;;;;;;;;;;;;;;;-144.99;100.00;52676.38;5000721;28;19980;-69
2023/11/30 06:46:53;;;;;;;;;;;;;;;-144.99;100.00;52676.38;5013686;28;20268;-69
2023/11/30 06:49:20;;;;;;;;;;;;;;;-144.99;100.00;52700.84;5025248;22;19933;-74
2023/11/30 06:51:46;;;;;;;;;;;;;;;-144.99;100.00;52660.09;5062809;28;19936;-75
2023/11/30 06:54:13;;;;;;;;;;;;;;;-144.99;100.00;52684.53;5056609;28;19929;-74
2023/11/30 06:56:41;;;;;;;;;;;;;;;-144.99;100.00;52698.81;5067599;28;19933;-74
2023/11/30 06:59:07;;;;;;;;;;;;;;;-144.99;100.00;52684.53;5065999;28;19925;-75
2023/11/30 07:01:36;;;;;;;;;;;;;;;-144.99;100.00;52702.88;5047746;28;20093;-74
2023/11/30 07:04:02;;;;;;;;;;;;;;;-144.99;100.00;52660.09;5054386;28;19925;-74
2023/11/30 07:06:30;;;;;;;;;;;;;;;-144.99;100.00;52704.94;5051823;28;19929;-74
2023/11/30 07:08:56;;;;;;;;;;;;;;;-144.99;100.00;52660.09;5053856;28;19925;-73
2023/11/30 07:11:23;;;;;;;;;;;;;;;-144.99;100.00;52696.78;5045885;28;19971;-73
2023/11/30 07:13:50;;;;;;;;;;;;;;;-144.99;100.00;52660.09;5037583;28;19959;-73
2023/11/30 07:16:17;;;;;;;;;;;;;;;-144.99;100.00;52686.59;5044845;28;19960;-72
2023/11/30 07:18:43;;;;;;;;;;;;;;;-144.99;100.00;52658.03;5044092;28;20023;-73
2023/11/30 07:21:13;;;;;;;;;;;;;;;-144.99;100.00;52688.63;5045792;28;19933;-73
2023/11/30 07:23:39;;;;;;;;;;;;;;;-144.99;100.00;52676.38;5040430;28;19987;-73
2023/11/30 07:26:10;;;;;;;;;;;;;;;-144.99;100.00;52698.81;5048198;28;20187;-73
2023/11/30 07:28:36;;;;;;;;;;;;;;;-144.99;100.00;52635.63;5051461;28;19926;-74
2023/11/30 07:31:04;;;;;;;;;;;;;;;-144.99;100.00;52680.47;5044366;28;19929;-75
2023/11/30 07:33:31;;;;;;;;;;;;;;;-144.99;100.00;52684.53;5056701;28;20400;-74
2023/11/30 07:35:57;;;;;;;;;;;;;;;-144.99;100.00;52698.81;5044950;28;19995;-73
2023/11/30 07:38:24;;;;;;;;;;;;;;;-144.99;100.00;52676.38;5049119;28;19928;-74
2023/11/30 07:40:51;;;;;;;;;;;;;;;-144.99;100.00;52664.16;5048346;28;19979;-75
2023/11/30 07:43:17;;;;;;;;;;;;;;;-144.99;100.00;52635.63;5050408;28;19928;-74
2023/11/30 07:45:43;;;;;;;;;;;;;;;-144.99;100.00;52672.31;5053417;28;19947;-74
2023/11/30 07:48:11;;;;;;;;;;;;;;;-144.99;100.00;52692.69;5052652;28;19933;-75
2023/11/30 07:50:38;;;;;;;;;;;;;;;-144.99;100.00;52704.94;5039541;28;19967;-73
2023/11/30 07:53:08;;;;;;;;;;;;;;;-144.99;100.00;52676.38;5044844;28;19979;-76
2023/11/30 07:55:34;;;;;;;;;;;;;;;-144.99;100.00;52680.47;5043979;28;19925;-74
2023/11/30 07:58:01;;;;;;;;;;;;;;;-144.99;100.00;52664.16;5042062;28;19924;-75
2023/11/30 08:00:27;;;;;;;;;;;;;;;-144.99;100.00;52680.47;5032844;28;20012;-74
2023/11/30 08:02:54;;;;;;;;;;;;;;;-144.99;100.00;52627.47;5039710;28;19925;-74
2023/11/30 08:05:24;;;;;;;;;;;;;;;-144.99;100.00;52676.38;5044004;28;20367;-73
2023/11/30 08:07:51;;;;;;;;;;;;;;;-144.99;100.00;52647.84;5050069;28;19925;-75
2023/11/30 08:10:18;;;;;;;;;;;;;;;-144.99;100.00;52643.78;5037228;28;19971;-74
2023/11/30 08:12:44;;;;;;;;;;;;;;;-144.99;100.00;52651.94;5037785;28;19936;-73
2023/11/30 08:15:11;;;;;;;;;;;;;;;-144.99;100.00;52603.00;5036228;28;19956;-74
2023/11/30 08:17:37;;;;;;;;;;;;;;;-144.99;100.00;52623.38;5041551;28;19925;-75
2023/11/30 08:20:04;;;;;;;;;;;;;;;-144.99;100.00;52674.34;5043046;28;19925;-75
2023/11/30 08:22:32;;;;;;;;;;;;;;;-144.99;100.00;52676.38;5037098;28;19951;-72
2023/11/30 08:25:00;;;;;;;;;;;;;;;-144.99;100.00;52692.69;5039883;28;19925;-75
2023/11/30 08:27:27;;;;;;;;;;;;;;;-144.99;100.00;52643.78;5043440;28;19934;-75
2023/11/30 08:29:53;;;;;;;;;;;;;;;-144.99;100.00;52660.09;5039556;28;19925;-75
2023/11/30 08:32:19;;;;;;;;;;;;;;;-144.99;100.00;52672.31;5040291;28;19928;-74
2023/11/30 08:34:46;;;;;;;;;;;;;;;-144.99;100.00;52639.69;5033755;28;19983;-75
2023/11/30 08:37:13;;;;;;;;;;;;;;;-144.99;100.00;52662.13;5048119;28;19982;-74
2023/11/30 08:39:42;;;;;;;;;;;;;;;-144.99;100.00;52656.00;5039929;28;19932;-74
2023/11/30 08:42:09;;;;;;;;;;;;;;;-144.99;100.00;52643.78;5035757;28;20447;-74
2023/11/30 08:44:35;;;;;;;;;;;;;;;-144.99;100.00;52651.94;5035228;28;19932;-74
2023/11/30 08:47:02;;;;;;;;;;;;;;;-144.99;100.00;52611.16;5043092;28;19925;-74
2023/11/30 08:49:28;;;;;;;;;;;;;;;-144.99;100.00;52676.38;5036806;28;19960;-75
2023/11/30 08:51:55;;;;;;;;;;;;;;;-144.99;100.00;52668.22;5039802;28;19975;-73
2023/11/30 08:54:22;;;;;;;;;;;;;;;-144.99;100.00;52700.84;5037796;28;19925;-74
2023/11/30 08:56:52;;;;;;;;;;;;;;;-144.99;100.00;52653.97;5041597;28;19929;-73
2023/11/30 08:59:18;;;;;;;;;;;;;;;-144.99;100.00;52643.78;5038565;28;19929;-75
2023/11/30 09:01:44;;;;;;;;;;;;;;;-144.99;100.00;52684.53;5036056;28;19925;-73
2023/11/30 09:04:11;;;;;;;;;;;;;;;-144.99;100.00;52625.44;5041785;28;19971;-74
2023/11/30 09:06:38;;;;;;;;;;;;;;;-144.99;100.00;52662.13;5050019;28;19924;-73
2023/11/30 09:09:04;;;;;;;;;;;;;;;-144.99;100.00;52623.38;5043511;28;19925;-76
2023/11/30 09:11:33;;;;;;;;;;;;;;;-144.99;100.00;52643.78;5068558;28;19912;-76
2023/11/30 09:14:01;;;;;;;;;;;;;;;-144.99;100.00;52635.63;5060934;28;19984;-75
2023/11/30 09:16:27;;;;;;;;;;;;;;;-144.99;100.00;52647.84;5057226;28;19912;-75
2023/11/30 09:18:55;;;;;;;;;;;;;;;-144.99;100.00;52647.84;5063386;28;19912;-74
2023/11/30 09:21:21;;;;;;;;;;;;;;;-144.99;100.00;52651.94;5065682;28;19960;-75
2023/11/30 09:23:48;;;;;;;;;;;;;;;-144.99;100.00;52651.94;5069118;28;19929;-75
2023/11/30 09:26:14;;;;;;;;;;;;;;;-144.99;100.00;52647.84;5078801;28;19928;-77
2023/11/30 09:28:41;;;;;;;;;;;;;;;-144.99;100.00;52651.94;5062040;28;19923;-75
2023/11/30 09:31:09;;;;;;;;;;;;;;;-144.99;100.00;52603.00;5065397;28;19941;-76
2023/11/30 09:33:35;;;;;;;;;;;;;;;-144.99;100.00;52692.69;5065866;28;19912;-76
2023/11/30 09:36:02;;;;;;;;;;;;;;;-144.99;100.00;52639.69;5061865;28;19987;-76
2023/11/30 09:38:28;;;;;;;;;;;;;;;-144.99;100.00;52631.53;5066929;28;19939;-77
2023/11/30 09:40:55;;;;;;;;;;;;;;;-144.99;100.00;52684.53;5062960;28;19925;-75
2023/11/30 09:43:21;;;;;;;;;;;;;;;-144.99;100.00;52668.22;5060484;28;19913;-76
2023/11/30 09:45:49;;;;;;;;;;;;;;;-144.99;100.00;52680.47;5058422;28;19913;-75
2023/11/30 09:48:17;;;;;;;;;;;;;;;-144.99;100.00;52607.09;5073187;28;19913;-75
2023/11/30 09:50:44;;;;;;;;;;;;;;;-144.99;100.00;52684.53;5069545;28;19947;-75
2023/11/30 09:53:11;;;;;;;;;;;;;;;-144.99;100.00;52647.84;5062049;28;19924;-73
2023/11/30 09:55:38;;;;;;;;;;;;;;;-144.99;100.00;52613.19;5072005;28;19925;-74
2023/11/30 09:58:05;;;;;;;;;;;;;;;-144.99;100.00;52660.09;5060612;28;19925;-75
2023/11/30 10:00:32;;;;;;;;;;;;;;;-144.99;100.00;52639.69;5059334;28;20040;-72
2023/11/30 10:02:59;;;;;;;;;;;;;;;-144.99;100.00;52637.66;5072239;28;19929;-75
2023/11/30 10:05:28;;;;;;;;;;;;;;;-144.99;100.00;52641.72;5059993;28;19926;-74
2023/11/30 10:07:58;;;;;;;;;;;;;;;-144.99;100.00;52629.50;5063956;28;19952;-74
2023/11/30 10:10:24;;;;;;;;;;;;;;;-144.99;100.00;52639.69;5061895;28;19913;-74
2023/11/30 10:12:51;;;;;;;;;;;;;;;-144.99;100.00;52656.00;5063450;28;19928;-75
2023/11/30 10:15:17;;;;;;;;;;;;;;;-144.99;100.00;52656.00;5062768;28;19925;-75
2023/11/30 10:17:43;;;;;;;;;;;;;;;-144.99;100.00;52660.09;5064980;28;19924;-75
2023/11/30 10:20:11;;;;;;;;;;;;;;;-144.99;100.00;52688.63;5065780;28;19953;-75
2023/11/30 10:22:40;;;;;;;;;;;;;;;-144.99;100.00;52656.00;5057647;28;19960;-75
2023/11/30 10:25:07;;;;;;;;;;;;;;;-144.99;100.00;52607.09;5068066;28;19980;-76
2023/11/30 10:27:35;;;;;;;;;;;;;;;-144.99;100.00;52651.94;5050601;28;20316;-74
2023/11/30 10:30:03;;;;;;;;;;;;;;;-144.99;100.00;52660.09;5037505;28;20397;-75
2023/11/30 10:32:31;;;;;;;;;;;;;;;-144.99;100.00;52649.88;5049537;28;20323;-74
2023/11/30 10:35:00;;;;;;;;;;;;;;;-144.99;100.00;52639.69;5039172;28;20510;-74
2023/11/30 10:37:27;;;;;;;;;;;;;;;-144.99;100.00;52660.09;5046756;28;19948;-74
2023/11/30 10:40:00;;;;;;;;;;;;;;;-144.99;100.00;52700.84;5046408;28;19947;-74
2023/11/30 10:42:27;;;;;;;;;;;;;;;-144.99;100.00;52635.63;5055481;28;19929;-73
2023/11/30 10:44:54;;;;;;;;;;;;;;;-144.99;100.00;52639.69;5053808;28;19925;-73
2023/11/30 10:47:22;;;;;;;;;;;;;;;-144.99;100.00;52664.16;5045698;28;19994;-73
2023/11/30 10:49:50;;;;;;;;;;;;;;;-144.99;100.00;52688.63;5040638;28;19972;-73
2023/11/30 10:52:17;;;;;;;;;;;;;;;-144.99;100.00;52635.63;5038705;28;19929;-74
2023/11/30 10:54:49;;;;;;;;;;;;;;;-144.99;100.00;52672.31;5050687;28;19929;-74
2023/11/30 10:57:18;;;;;;;;;;;;;;;-144.99;100.00;52676.38;5038335;28;20024;-74
2023/11/30 10:59:44;;;;;;;;;;;;;;;-144.99;100.00;52664.16;5040602;28;19956;-74
2023/11/30 11:02:12;;;;;;;;;;;;;;;-144.99;100.00;52684.53;5042347;28;19999;-74
2023/11/30 11:04:40;;;;;;;;;;;;;;;-144.99;100.00;52645.81;5044069;28;19987;-74
2023/11/30 11:07:08;;;;;;;;;;;;;;;-144.99;100.00;52656.00;5044179;28;19926;-74
2023/11/30 11:09:41;;;;;;;;;;;;;;;-144.99;100.00;52660.09;5030992;28;19926;-74
2023/11/30 11:12:19;;;;;;;;;;;;;;;-144.99;100.00;52639.69;5051097;28;20424;-74
2023/11/30 11:14:48;;;;;;;;;;;;;;;-144.99;100.00;52668.22;5038727;28;20010;-74
2023/11/30 11:17:15;;;;;;;;;;;;;;;-144.99;100.00;52615.25;5043773;28;19937;-74
2023/11/30 11:19:42;;;;;;;;;;;;;;;-144.99;100.00;52692.69;5039059;28;19991;-74
2023/11/30 11:22:16;;;;;;;;;;;;;;;-144.99;100.00;52647.84;5035977;28;19979;-74
2023/11/30 11:24:42;;;;;;;;;;;;;;;-144.99;100.00;52672.31;5040935;28;20108;-75
2023/11/30 11:27:09;;;;;;;;;;;;;;;-144.99;100.00;52637.66;5047052;28;19925;-75
2023/11/30 11:29:37;;;;;;;;;;;;;;;-144.99;100.00;52660.09;5042132;28;19956;-76
2023/11/30 11:32:04;;;;;;;;;;;;;;;-144.99;100.00;52639.69;5031868;28;20440;-75
2023/11/30 11:34:31;;;;;;;;;;;;;;;-144.99;100.00;52664.16;5040518;28;19925;-75
2023/11/30 11:36:58;;;;;;;;;;;;;;;-144.99;100.00;52651.94;5046174;28;19993;-74
2023/11/30 11:39:25;;;;;;;;;;;;;;;-144.99;100.00;52696.78;5040883;28;19925;-73
2023/11/30 11:41:52;;;;;;;;;;;;;;;-144.99;100.00;52656.00;5046451;28;19947;-74
2023/11/30 11:44:18;;;;;;;;;;;;;;;-144.99;100.00;52623.38;5039635;28;19929;-74
2023/11/30 11:46:46;;;;;;;;;;;;;;;-144.99;100.00;52660.09;5042782;28;20446;-74
2023/11/30 11:49:12;;;;;;;;;;;;;;;-144.99;100.00;52649.88;5036836;28;19925;-74
2023/11/30 11:51:43;;;;;;;;;;;;;;;-144.99;100.00;52643.78;5048988;28;20575;-74
2023/11/30 11:54:16;;;;;;;;;;;;;;;-144.99;100.00;52666.19;5038281;28;20393;-74
2023/11/30 11:56:47;;;;;;;;;;;;;;;-144.99;100.00;52656.00;5035665;28;20362;-75
2023/11/30 11:59:18;;;;;;;;;;;;;;;-144.99;100.00;52688.63;5047236;28;19937;-74
2023/11/30 12:01:47;;;;;;;;;;;;;;;-144.99;100.00;52676.38;5035922;28;19933;-76
2023/11/30 12:04:13;;;;;;;;;;;;;;;-144.99;100.00;52656.00;5041152;28;19936;-74
2023/11/30 12:06:40;;;;;;;;;;;;;;;-144.99;100.00;52647.84;5037466;28;19994;-74
2023/11/30 12:09:10;;;;;;;;;;;;;;;-144.99;100.00;52627.47;5043297;28;20301;-74
2023/11/30 12:11:36;;;;;;;;;;;;;;;-144.99;100.00;52643.78;5039777;28;19929;-74
2023/11/30 12:14:04;;;;;;;;;;;;;;;-144.99;100.00;52649.88;5037295;28;19924;-75
2023/11/30 12:16:31;;;;;;;;;;;;;;;-144.99;100.00;52670.28;5043546;28;19929;-74
2023/11/30 12:18:59;;;;;;;;;;;;;;;-144.99;100.00;52656.00;5041027;28;19996;-72